createdAt,value
2022-10-12T00:01:55.968Z,53.87
2022-10-12T00:04:30.410Z,53.91
2022-10-12T00:07:05.165Z,54.00
2022-10-12T00:09:37.807Z,54.08
2022-10-12T00:12:10.508Z,54.09
2022-10-12T00:14:43.603Z,54.09
2022-10-12T00:17:16.218Z,54.04
2022-10-12T00:19:51.256Z,53.92
2022-10-12T00:22:23.217Z,53.91
2022-10-12T00:25:01.332Z,53.99
2022-10-12T00:27:35.120Z,53.97
2022-10-12T00:30:10.592Z,54.04
2022-10-12T00:32:42.547Z,53.98
2022-10-12T00:35:15.815Z,54.06
2022-10-12T00:37:50.395Z,54.00
2022-10-12T00:40:22.730Z,54.00
2022-10-12T00:42:55.433Z,54.03
2022-10-12T00:45:29.579Z,54.20
2022-10-12T00:48:03.227Z,54.17
2022-10-12T00:50:36.718Z,54.18
2022-10-12T00:53:13.135Z,54.14
2022-10-12T00:55:49.167Z,54.15
2022-10-12T00:58:21.394Z,54.22
2022-10-12T01:00:53.759Z,54.26
2022-10-12T01:03:28.147Z,54.31
2022-10-12T01:06:01.170Z,54.40
2022-10-12T01:08:34.557Z,54.31
2022-10-12T01:11:07.699Z,54.30
2022-10-12T01:13:39.802Z,54.22
2022-10-12T01:16:17.985Z,54.09
2022-10-12T01:18:54.690Z,54.12
2022-10-12T01:21:27.048Z,54.20
2022-10-12T01:24:31.909Z,54.20
2022-10-12T01:27:36.467Z,54.12
2022-10-12T01:30:14.263Z,54.08
2022-10-12T01:33:09.755Z,54.13
2022-10-12T01:35:47.574Z,54.19
2022-10-12T01:38:29.002Z,54.27
2022-10-12T01:41:04.386Z,54.44
2022-10-12T01:43:41.138Z,54.35
2022-10-12T01:46:53.428Z,54.44
2022-10-12T01:49:29.045Z,54.39
2022-10-12T01:52:18.012Z,54.31
2022-10-12T01:55:00.136Z,54.39
2022-10-12T01:57:37.289Z,54.38
2022-10-12T02:00:13.679Z,54.42
2022-10-12T02:02:52.058Z,54.29
2022-10-12T02:05:31.749Z,54.34
2022-10-12T02:08:07.155Z,54.43
2022-10-12T02:10:45.903Z,54.36
2022-10-12T02:13:19.961Z,54.55
2022-10-12T02:15:52.786Z,54.43
2022-10-12T02:18:28.801Z,54.44
2022-10-12T02:21:02.707Z,54.47
2022-10-12T02:23:37.731Z,54.50
2022-10-12T02:26:13.389Z,54.44
2022-10-12T02:28:47.042Z,54.46
2022-10-12T02:31:27.233Z,54.42
2022-10-12T02:34:05.006Z,54.37
2022-10-12T02:36:43.821Z,54.49
2022-10-12T02:39:21.207Z,54.53
2022-10-12T02:41:56.518Z,54.58
2022-10-12T02:44:32.308Z,54.52
2022-10-12T02:47:06.950Z,54.45
2022-10-12T02:49:39.507Z,54.41
2022-10-12T02:52:12.652Z,54.39
2022-10-12T02:54:48.225Z,54.45
2022-10-12T02:57:21.312Z,54.40
2022-10-12T02:59:57.295Z,54.45
2022-10-12T03:02:30.516Z,54.67
2022-10-12T03:05:04.389Z,55.21
2022-10-12T03:07:39.974Z,55.21
2022-10-12T03:10:16.214Z,55.18
2022-10-12T03:12:50.375Z,55.23
2022-10-12T03:15:25.285Z,55.16
2022-10-12T03:17:57.757Z,55.13
2022-10-12T03:20:31.398Z,55.16
2022-10-12T03:23:07.424Z,54.89
2022-10-12T03:25:41.332Z,54.83
2022-10-12T03:28:13.590Z,54.75
2022-10-12T03:30:47.865Z,54.70
2022-10-12T03:33:21.383Z,54.71
2022-10-12T03:35:54.551Z,54.66
2022-10-12T03:38:27.463Z,54.79
2022-10-12T03:41:05.697Z,54.96
2022-10-12T03:43:40.747Z,55.02
2022-10-12T03:46:14.132Z,54.98
2022-10-12T03:48:48.230Z,55.14
2022-10-12T03:51:23.106Z,55.22
2022-10-12T03:53:55.712Z,55.31
2022-10-12T03:56:28.023Z,55.44
2022-10-12T03:59:00.884Z,55.37
2022-10-12T04:01:35.772Z,55.26
2022-10-12T04:04:09.147Z,55.37
2022-10-12T04:06:44.971Z,55.26
2022-10-12T04:09:19.630Z,55.52
2022-10-12T04:11:55.167Z,55.93
2022-10-12T04:14:27.306Z,55.96
2022-10-12T04:17:03.471Z,56.17
2022-10-12T04:19:37.376Z,56.18
2022-10-12T04:22:12.512Z,55.67
2022-10-12T04:24:44.305Z,55.59
2022-10-12T04:27:16.135Z,55.55
2022-10-12T04:29:49.877Z,55.34
2022-10-12T04:32:23.233Z,55.32
2022-10-12T04:35:01.856Z,55.25
2022-10-12T04:37:34.457Z,55.25
2022-10-12T04:40:07.939Z,55.24
2022-10-12T04:42:43.646Z,55.45
2022-10-12T04:45:16.668Z,55.26
2022-10-12T04:47:51.228Z,55.38
2022-10-12T04:50:27.499Z,55.44
2022-10-12T04:53:02.032Z,55.44
2022-10-12T04:55:34.767Z,55.37
2022-10-12T04:58:06.689Z,55.36
2022-10-12T05:00:39.404Z,55.24
2022-10-12T05:03:13.285Z,55.40
2022-10-12T05:05:47.489Z,55.28
2022-10-12T05:08:21.874Z,55.30
2022-10-12T05:10:56.431Z,55.36
2022-10-12T05:13:29.050Z,55.32
2022-10-12T05:16:02.340Z,55.34
2022-10-12T05:18:34.605Z,55.44
2022-10-12T05:21:08.972Z,55.29
2022-10-12T05:23:40.998Z,55.40
2022-10-12T05:26:16.058Z,55.34
2022-10-12T05:28:48.499Z,55.37
2022-10-12T05:31:24.517Z,55.48
2022-10-12T05:33:57.799Z,55.51
2022-10-12T05:36:30.338Z,55.40
2022-10-12T05:39:03.653Z,55.40
2022-10-12T05:41:37.841Z,55.41
2022-10-12T05:44:11.961Z,55.39
2022-10-12T05:46:46.625Z,55.41
2022-10-12T05:49:19.353Z,55.38
2022-10-12T05:51:54.522Z,55.43
2022-10-12T05:54:28.371Z,55.34
2022-10-12T05:57:00.750Z,55.44
2022-10-12T05:59:33.446Z,55.41
2022-10-12T06:02:07.376Z,55.32
2022-10-12T06:04:40.888Z,55.34
2022-10-12T06:07:13.442Z,55.56
2022-10-12T06:09:48.511Z,55.84
2022-10-12T06:12:20.811Z,55.90
2022-10-12T06:14:54.323Z,55.96
2022-10-12T06:17:29.193Z,56.08
2022-10-12T06:20:04.233Z,56.04
2022-10-12T06:22:37.730Z,56.17
2022-10-12T06:25:11.255Z,56.05
2022-10-12T06:27:44.084Z,56.19
2022-10-12T06:30:16.278Z,56.19
2022-10-12T06:32:51.565Z,55.74
2022-10-12T06:35:23.785Z,55.82
2022-10-12T06:37:56.603Z,55.81
2022-10-12T06:40:32.242Z,56.06
2022-10-12T06:43:05.036Z,56.41
2022-10-12T06:45:39.776Z,56.35
2022-10-12T06:48:18.586Z,55.90
2022-10-12T06:50:54.589Z,55.93
2022-10-12T06:53:31.374Z,55.74
2022-10-12T06:56:04.193Z,55.68
2022-10-12T06:58:38.388Z,55.80
2022-10-12T07:01:12.434Z,55.80
2022-10-12T07:03:44.380Z,55.78
2022-10-12T07:06:16.833Z,55.63
2022-10-12T07:08:49.179Z,55.29
2022-10-12T07:11:21.168Z,55.96
2022-10-12T07:13:54.162Z,56.18
2022-10-12T07:16:28.725Z,56.07
2022-10-12T07:19:01.815Z,55.96
2022-10-12T07:21:34.989Z,55.92
2022-10-12T07:24:09.627Z,55.82
2022-10-12T07:26:43.714Z,56.01
2022-10-12T07:29:20.010Z,55.97
2022-10-12T07:31:53.190Z,55.92
2022-10-12T07:34:31.050Z,55.81
2022-10-12T07:37:03.699Z,55.82
2022-10-12T07:39:37.054Z,55.87
2022-10-12T07:42:16.855Z,55.55
2022-10-12T07:44:54.180Z,54.95
2022-10-12T07:47:54.088Z,54.59
2022-10-12T07:50:31.067Z,54.56
2022-10-12T07:53:07.459Z,54.56
2022-10-12T07:55:45.379Z,54.74
2022-10-12T07:58:19.878Z,54.75
2022-10-12T08:00:53.738Z,54.74
2022-10-12T08:03:27.897Z,54.60
2022-10-12T08:06:04.212Z,54.22
2022-10-12T08:08:40.024Z,54.15
2022-10-12T08:11:41.993Z,54.11
2022-10-12T08:14:21.687Z,54.09
2022-10-12T08:16:59.051Z,53.61
2022-10-12T08:19:40.506Z,53.59
2022-10-12T08:22:18.738Z,53.72
2022-10-12T08:24:57.012Z,53.68
2022-10-12T08:27:34.382Z,53.69
2022-10-12T08:30:13.743Z,53.50
2022-10-12T08:32:46.792Z,53.44
2022-10-12T08:35:22.501Z,53.31
2022-10-12T08:37:56.035Z,53.16
2022-10-12T08:40:35.645Z,52.81
2022-10-12T08:43:20.599Z,52.83
2022-10-12T08:45:59.061Z,52.45
2022-10-12T08:49:03.810Z,52.24
2022-10-12T08:51:49.113Z,52.01
2022-10-12T08:54:32.952Z,51.46
2022-10-12T08:57:15.495Z,51.28
2022-10-12T08:59:52.967Z,51.14
2022-10-12T09:02:46.407Z,50.83
2022-10-12T09:05:49.703Z,50.83
2022-10-12T09:08:38.858Z,50.25
2022-10-12T09:11:32.568Z,49.71
2022-10-12T09:14:32.977Z,49.47
2022-10-12T09:24:26.293Z,48.91
2022-10-12T09:27:30.681Z,48.67
2022-10-12T09:30:09.402Z,48.24
2022-10-12T09:33:09.623Z,47.90
2022-10-12T09:35:52.127Z,47.62
2022-10-12T09:42:15.438Z,46.83
2022-10-12T09:44:55.413Z,46.95
2022-10-12T09:50:46.837Z,46.28
2022-10-12T09:53:35.318Z,46.39
2022-10-12T09:56:38.062Z,46.09
2022-10-12T10:02:58.125Z,45.03
2022-10-12T10:05:35.113Z,44.78
2022-10-12T10:14:48.984Z,43.82
2022-10-12T10:17:57.747Z,43.78
2022-10-12T10:21:00.088Z,43.75
2022-10-12T10:24:03.938Z,43.51
2022-10-12T10:27:24.086Z,43.05
2022-10-12T10:30:29.613Z,42.38
2022-10-12T10:33:28.219Z,42.27
2022-10-12T10:36:46.981Z,42.18
2022-10-12T10:39:29.934Z,41.87
2022-10-12T10:42:21.228Z,41.31
2022-10-12T10:45:03.158Z,40.66
2022-10-12T10:47:51.506Z,40.92
2022-10-12T10:50:37.591Z,41.02
2022-10-12T10:53:19.438Z,40.96
2022-10-12T10:56:00.206Z,40.84
2022-10-12T10:58:40.067Z,40.87
2022-10-12T11:01:45.738Z,40.64
2022-10-12T11:04:48.570Z,40.80
2022-10-12T11:07:32.720Z,40.80
2022-10-12T11:10:24.798Z,40.57
2022-10-12T11:13:06.540Z,40.78
2022-10-12T11:19:00.837Z,40.13
2022-10-12T11:21:51.936Z,40.05
2022-10-12T11:24:33.004Z,40.02
2022-10-12T11:27:18.802Z,40.05
2022-10-12T11:30:09.448Z,40.31
2022-10-12T11:32:48.151Z,39.85
2022-10-12T11:35:31.103Z,39.52
2022-10-12T11:38:06.574Z,39.07
2022-10-12T11:43:45.043Z,38.07
2022-10-12T11:46:29.945Z,37.96
2022-10-12T11:49:32.776Z,38.02
2022-10-12T11:52:12.514Z,37.58
2022-10-12T11:54:56.458Z,36.52
2022-10-12T11:57:53.451Z,37.25
2022-10-12T12:00:59.006Z,37.11
2022-10-12T12:03:41.346Z,36.85
2022-10-12T12:10:53.724Z,36.46
2022-10-12T12:13:56.997Z,36.60
2022-10-12T12:16:50.274Z,36.24
2022-10-12T12:20:16.318Z,36.03
2022-10-12T12:22:58.917Z,34.92
2022-10-12T12:26:04.435Z,34.83
2022-10-12T12:29:05.350Z,34.77
2022-10-12T12:31:44.347Z,34.23
2022-10-12T12:34:19.354Z,34.18
2022-10-12T12:51:45.197Z,34.52
2022-10-12T12:54:33.897Z,34.35
2022-10-12T13:01:00.821Z,34.26
2022-10-12T13:08:22.049Z,33.53
2022-10-12T13:15:24.039Z,33.22
2022-10-12T13:18:45.785Z,32.87
2022-10-12T13:21:26.484Z,32.45
2022-10-12T13:24:18.482Z,32.31
2022-10-12T13:27:41.378Z,32.42
2022-10-12T13:30:28.838Z,32.58
2022-10-12T13:33:17.586Z,32.20
2022-10-12T13:36:05.783Z,32.32
2022-10-12T13:39:49.861Z,32.94
2022-10-12T13:42:30.018Z,32.82
2022-10-12T13:51:38.057Z,33.36
2022-10-12T13:54:40.110Z,33.79
2022-10-12T13:57:24.060Z,33.87
2022-10-12T14:00:29.210Z,33.81
2022-10-12T14:06:42.887Z,33.96
2022-10-12T14:09:23.103Z,34.06
2022-10-12T14:12:04.189Z,34.07
2022-10-12T14:14:47.120Z,34.13
2022-10-12T14:17:29.235Z,34.26
2022-10-12T14:20:24.004Z,34.46
2022-10-12T14:23:02.352Z,34.63
2022-10-12T14:26:01.155Z,34.72
2022-10-12T14:28:38.551Z,34.64
2022-10-12T14:31:12.019Z,34.45
2022-10-12T14:33:50.199Z,34.44
2022-10-12T14:36:30.781Z,34.66
2022-10-12T14:39:30.961Z,34.68
2022-10-12T14:45:29.670Z,34.44
2022-10-12T14:48:14.363Z,34.87
2022-10-12T14:50:52.813Z,35.20
2022-10-12T14:57:33.319Z,35.36
2022-10-12T15:00:38.333Z,35.64
2022-10-12T15:03:20.212Z,35.50
2022-10-12T15:05:56.985Z,35.66
2022-10-12T15:08:32.856Z,35.31
2022-10-12T15:11:42.706Z,35.29
2022-10-12T15:14:51.903Z,35.51
2022-10-12T15:17:25.665Z,35.72
2022-10-12T15:20:08.614Z,35.85
2022-10-12T15:23:08.111Z,35.92
2022-10-12T15:26:19.610Z,36.16
2022-10-12T15:33:31.567Z,37.03
2022-10-12T15:40:00.502Z,37.50
2022-10-12T15:42:40.054Z,37.74
2022-10-12T15:46:02.936Z,37.99
2022-10-12T15:49:01.382Z,38.28
2022-10-12T15:54:48.948Z,38.73
2022-10-12T15:57:24.845Z,38.99
2022-10-12T16:00:24.127Z,39.16
2022-10-12T16:03:26.415Z,39.38
2022-10-12T16:10:20.318Z,39.86
2022-10-12T16:12:58.082Z,40.01
2022-10-12T16:16:00.695Z,39.93
2022-10-12T16:18:47.891Z,40.26
2022-10-12T16:21:53.745Z,40.62
2022-10-12T16:24:30.337Z,40.81
2022-10-12T16:27:57.867Z,40.94
2022-10-12T16:30:30.954Z,41.19
2022-10-12T16:33:29.323Z,41.33
2022-10-12T16:43:17.134Z,41.67
2022-10-12T16:46:02.945Z,41.79
2022-10-12T16:48:40.990Z,42.02
2022-10-12T16:51:19.759Z,42.13
2022-10-12T16:57:40.369Z,42.35
2022-10-12T17:00:22.597Z,42.43
2022-10-12T17:03:42.268Z,42.53
2022-10-12T17:06:21.360Z,42.73
2022-10-12T17:08:58.991Z,42.89
2022-10-12T17:12:00.757Z,43.07
2022-10-12T17:14:41.397Z,43.20
2022-10-12T17:18:02.010Z,43.29
2022-10-12T17:20:37.167Z,43.46
2022-10-12T17:23:41.807Z,43.58
2022-10-12T17:27:08.917Z,43.78
2022-10-12T17:30:15.021Z,44.11
2022-10-12T17:32:54.160Z,44.17
2022-10-12T17:35:28.604Z,44.24
2022-10-12T17:38:30.028Z,44.34
2022-10-12T17:44:56.974Z,44.63
2022-10-12T17:47:31.161Z,44.71
2022-10-12T17:50:04.328Z,44.85
2022-10-12T17:52:42.359Z,44.94
2022-10-12T17:55:43.371Z,45.09
2022-10-12T18:05:05.110Z,45.47
2022-10-12T18:07:42.120Z,45.62
2022-10-12T18:11:31.318Z,45.61
2022-10-12T18:14:58.960Z,45.81
2022-10-12T18:17:34.596Z,45.89
2022-10-12T18:20:14.011Z,46.00
2022-10-12T18:27:23.392Z,46.11
2022-10-12T18:30:25.593Z,46.63
2022-10-12T18:33:04.052Z,46.86
2022-10-12T18:35:43.489Z,47.00
2022-10-12T18:42:03.767Z,47.03
2022-10-12T18:45:29.561Z,47.33
2022-10-12T18:48:08.401Z,47.53
2022-10-12T18:51:11.795Z,47.68
2022-10-12T18:53:54.438Z,47.85
2022-10-12T18:56:37.573Z,47.60
2022-10-12T18:59:13.203Z,48.01
2022-10-12T19:01:50.694Z,48.03
2022-10-12T19:04:26.869Z,48.17
2022-10-12T19:07:28.173Z,48.28
2022-10-12T19:11:15.085Z,48.41
2022-10-12T19:14:40.532Z,48.51
2022-10-12T19:17:38.495Z,48.28
2022-10-12T19:20:40.047Z,48.44
2022-10-12T19:23:21.402Z,48.76
2022-10-12T19:33:28.490Z,49.45
2022-10-12T19:36:40.816Z,49.52
2022-10-12T19:40:07.649Z,49.55
2022-10-12T19:42:43.402Z,49.54
2022-10-12T19:45:25.079Z,49.90
2022-10-12T19:51:26.214Z,50.11
2022-10-12T19:57:38.802Z,50.32
2022-10-12T20:00:27.028Z,50.18
2022-10-12T20:03:02.445Z,50.14
2022-10-12T20:05:39.952Z,50.31
2022-10-12T20:09:09.188Z,50.28
2022-10-12T20:11:50.619Z,50.60
2022-10-12T20:14:53.539Z,50.90
2022-10-12T20:17:50.467Z,50.99
2022-10-12T20:20:27.231Z,50.61
2022-10-12T20:23:02.319Z,50.58
2022-10-12T20:26:01.598Z,50.52
2022-10-12T20:32:45.233Z,50.51
2022-10-12T20:35:19.812Z,50.56
2022-10-12T20:38:18.095Z,50.69
2022-10-12T20:45:17.101Z,50.83
2022-10-12T20:47:52.954Z,50.93
2022-10-12T20:54:07.333Z,50.87
2022-10-12T21:09:19.895Z,51.75
2022-10-12T21:11:56.291Z,52.02
2022-10-12T21:14:58.792Z,52.04
2022-10-12T21:17:57.837Z,51.77
2022-10-12T21:20:38.714Z,51.62
2022-10-12T21:24:25.253Z,51.74
2022-10-12T21:27:51.065Z,51.59
2022-10-12T21:30:24.410Z,51.78
2022-10-12T21:32:59.925Z,51.70
2022-10-12T21:35:34.654Z,51.88
2022-10-12T21:38:35.591Z,51.90
2022-10-12T21:41:59.288Z,51.85
2022-10-12T21:45:07.146Z,51.96
2022-10-12T21:47:43.130Z,52.07
2022-10-12T21:51:29.228Z,52.14
2022-10-12T21:54:29.425Z,52.22
2022-10-12T21:57:04.951Z,52.22
2022-10-12T22:00:09.124Z,52.25
2022-10-12T22:02:47.406Z,52.27
2022-10-12T22:05:25.493Z,52.36
2022-10-12T22:11:50.025Z,52.30
2022-10-12T22:14:24.987Z,52.38
2022-10-12T22:17:47.031Z,52.34
2022-10-12T22:21:07.805Z,52.41
2022-10-12T22:23:42.410Z,52.81
2022-10-12T22:26:23.388Z,52.91
2022-10-12T22:29:07.065Z,52.97
2022-10-12T22:31:47.955Z,52.99
2022-10-12T22:34:26.765Z,53.03
2022-10-12T22:44:03.420Z,53.21
2022-10-12T22:46:40.372Z,53.11
2022-10-12T22:50:03.461Z,53.15
2022-10-12T22:53:04.789Z,53.31
2022-10-12T22:56:05.621Z,53.25
2022-10-12T22:58:49.073Z,53.27
2022-10-12T23:01:27.110Z,53.36
2022-10-12T23:03:59.984Z,53.26
2022-10-12T23:10:44.936Z,53.23
2022-10-12T23:13:44.422Z,53.16
2022-10-12T23:16:25.239Z,53.13
2022-10-12T23:19:04.998Z,53.10
2022-10-12T23:21:39.334Z,53.14
2022-10-12T23:24:13.094Z,53.14
2022-10-12T23:26:51.917Z,53.15
2022-10-12T23:29:29.706Z,53.23
2022-10-12T23:32:11.220Z,53.27
2022-10-12T23:34:48.174Z,53.30
2022-10-12T23:38:16.695Z,53.27
2022-10-12T23:40:51.000Z,53.43
2022-10-12T23:43:54.619Z,53.39
2022-10-12T23:50:48.925Z,53.38
2022-10-12T23:53:23.733Z,53.38
2022-10-12T23:56:22.004Z,53.46
